Time;durP1;ratioP1;P1;durP2;ratioP2;P2;SDS_P1;SDS_P2;PMS_P1;PMS_P2;Temp;Humidity;BMP_temperature;BMP_pressure;BME280_temperature;BME280_humidity;BME280_pressure;Samples;Min_cycle;Max_cycle;Signal;HPM_P1;HPM_P2
2022/05/04 00:01:02;;;;;;;8.68;2.50;;;9.40;99.90;;;;;;5008113;28;20052;-67
2022/05/04 00:03:28;;;;;;;9.35;2.42;;;9.40;99.90;;;;;;5008610;28;20041;-67
2022/05/04 00:05:53;;;;;;;10.02;2.47;;;9.40;99.90;;;;;;5008408;28;20120;-67
2022/05/04 00:08:19;;;;;;;14.73;2.90;;;9.40;99.90;;;;;;4990907;28;20057;-67
2022/05/04 00:10:45;;;;;;;10.77;2.42;;;9.60;99.90;;;;;;4990732;28;20057;-67
2022/05/04 00:13:11;;;;;;;8.82;2.67;;;9.30;99.90;;;;;;5008340;28;20033;-67
2022/05/04 00:15:37;;;;;;;7.97;2.10;;;8.60;99.90;;;;;;5009009;28;20202;-67
2022/05/04 00:18:03;;;;;;;8.00;2.45;;;9.30;99.90;;;;;;5008426;28;20038;-67
2022/05/04 00:20:29;;;;;;;7.72;2.20;;;9.40;99.90;;;;;;4990981;28;20053;-67
2022/05/04 00:22:55;;;;;;;10.82;2.45;;;9.40;99.90;;;;;;5007932;28;20406;-67
2022/05/04 00:25:20;;;;;;;11.07;2.72;;;9.40;99.90;;;;;;5008012;28;20072;-67
2022/05/04 00:27:46;;;;;;;13.82;2.80;;;9.30;99.90;;;;;;5008159;28;20054;-67
2022/05/04 00:30:12;;;;;;;9.65;2.40;;;9.40;99.90;;;;;;4991313;28;20041;-67
2022/05/04 00:32:38;;;;;;;9.68;2.42;;;9.40;99.90;;;;;;4991181;28;20430;-67
2022/05/04 00:35:04;;;;;;;10.02;2.22;;;9.40;99.90;;;;;;4989924;28;20529;-67
2022/05/04 00:37:29;;;;;;;10.20;3.03;;;9.40;99.90;;;;;;5007959;28;20050;-67
2022/05/04 00:39:55;;;;;;;9.68;2.65;;;9.40;99.90;;;;;;5009302;28;20054;-67
2022/05/04 00:42:21;;;;;;;10.43;2.55;;;9.50;99.90;;;;;;5006939;28;20038;-67
2022/05/04 00:44:51;;;;;;;23.25;2.83;;;9.30;99.90;;;;;;5009995;28;20048;-67
2022/05/04 00:47:18;;;;;;;10.68;2.97;;;9.40;99.90;;;;;;4991810;28;20046;-67
2022/05/04 00:49:48;;;;;;;12.07;2.63;;;9.40;99.90;;;;;;5007547;28;20041;-67
2022/05/04 00:52:15;;;;;;;9.07;2.75;;;9.30;99.90;;;;;;4992425;28;20088;-67
2022/05/04 00:54:45;;;;;;;10.85;2.75;;;9.30;99.90;;;;;;5010797;28;20440;-67
2022/05/04 00:57:13;;;;;;;8.50;3.13;;;9.30;99.90;;;;;;5006843;28;20045;-67
2022/05/04 00:59:39;;;;;;;10.75;2.95;;;9.30;99.90;;;;;;5008940;28;20052;-67
2022/05/04 01:02:05;;;;;;;10.50;2.75;;;9.30;99.90;;;;;;4999669;28;20034;-67
2022/05/04 01:04:30;;;;;;;9.00;2.90;;;9.20;99.90;;;;;;4987903;28;20175;-67
2022/05/04 01:06:56;;;;;;;7.57;2.40;;;9.20;99.90;;;;;;4979915;28;20042;-67
2022/05/04 01:09:22;;;;;;;10.75;2.72;;;9.20;99.90;;;;;;5008152;28;20073;-67
2022/05/04 01:11:48;;;;;;;9.07;2.38;;;9.20;99.90;;;;;;5006955;28;20042;-67
2022/05/04 01:14:15;;;;;;;10.52;2.50;;;9.20;99.90;;;;;;4990170;28;20405;-67
2022/05/04 01:16:43;;;;;;;11.88;3.03;;;9.30;99.90;;;;;;4992206;28;20181;-67
2022/05/04 01:19:11;;;;;;;10.68;2.72;;;9.30;99.90;;;;;;4990386;28;20062;-66
2022/05/04 01:21:37;;;;;;;9.80;2.90;;;9.30;99.90;;;;;;5008453;28;20389;-67
2022/05/04 01:24:03;;;;;;;8.93;2.75;;;9.30;99.90;;;;;;5006578;28;20117;-67
2022/05/04 01:26:29;;;;;;;8.48;2.40;;;9.30;99.90;;;;;;4989877;28;20092;-67
2022/05/04 01:28:55;;;;;;;11.98;2.25;;;9.30;99.90;;;;;;5007484;28;20038;-67
2022/05/04 01:31:21;;;;;;;8.57;2.45;;;9.30;99.90;;;;;;5008198;28;20459;-67
2022/05/04 01:33:47;;;;;;;16.98;2.88;;;9.30;99.90;;;;;;4989858;28;20125;-67
2022/05/04 01:36:12;;;;;;;9.55;2.47;;;9.30;99.90;;;;;;4976149;28;20088;-66
2022/05/04 01:38:38;;;;;;;10.98;2.70;;;9.30;99.90;;;;;;5009289;28;20391;-66
2022/05/04 01:41:04;;;;;;;8.20;2.67;;;9.20;99.90;;;;;;4990287;28;20045;-66
2022/05/04 01:43:29;;;;;;;9.32;2.70;;;9.20;99.90;;;;;;5008405;28;20085;-66
2022/05/04 01:45:57;;;;;;;7.55;2.60;;;9.20;99.90;;;;;;5010360;28;20042;-66
2022/05/04 01:48:23;;;;;;;10.93;2.50;;;9.20;99.90;;;;;;4991371;28;20474;-66
2022/05/04 01:50:49;;;;;;;10.98;3.10;;;9.20;99.90;;;;;;5002037;28;20093;-66
2022/05/04 01:53:15;;;;;;;11.88;2.92;;;9.30;99.90;;;;;;4987686;28;20046;-67
2022/05/04 01:55:41;;;;;;;11.35;2.80;;;9.20;99.90;;;;;;4993801;28;20402;-67
2022/05/04 01:58:07;;;;;;;10.57;2.78;;;9.20;99.90;;;;;;5006263;28;20045;-66
2022/05/04 02:00:34;;;;;;;10.35;2.80;;;9.20;99.90;;;;;;4988144;28;20661;-66
2022/05/04 02:03:00;;;;;;;8.07;2.90;;;9.10;99.90;;;;;;4973421;28;20042;-66
2022/05/04 02:05:27;;;;;;;12.07;3.10;;;9.10;99.90;;;;;;5009266;28;20030;-67
2022/05/04 02:07:53;;;;;;;10.95;2.72;;;9.20;99.90;;;;;;5010199;28;20367;-67
2022/05/04 02:10:19;;;;;;;7.15;2.85;;;9.10;99.90;;;;;;5010834;28;20085;-66
2022/05/04 02:12:45;;;;;;;9.48;2.65;;;9.10;99.90;;;;;;5010954;28;20457;-66
2022/05/04 02:15:11;;;;;;;13.75;2.78;;;9.10;99.90;;;;;;5010715;28;20100;-66
2022/05/04 02:17:38;;;;;;;9.30;2.35;;;9.10;99.90;;;;;;4994130;28;20045;-66
2022/05/04 02:20:05;;;;;;;8.55;2.92;;;9.10;99.90;;;;;;5010157;28;20121;-66
2022/05/04 02:22:31;;;;;;;7.88;2.70;;;9.10;99.90;;;;;;4975930;28;20092;-67
2022/05/04 02:24:57;;;;;;;11.05;3.08;;;9.10;99.90;;;;;;5012756;28;20062;-66
2022/05/04 02:27:23;;;;;;;8.85;2.55;;;9.10;99.90;;;;;;5009466;28;20049;-66
2022/05/04 02:29:49;;;;;;;11.80;2.85;;;9.10;99.90;;;;;;5011612;28;20053;-67
2022/05/04 02:32:15;;;;;;;9.15;2.58;;;9.10;99.90;;;;;;5010438;28;20085;-67
2022/05/04 02:40:11;;;;;;;6.32;2.25;;;9.10;99.90;;;;;;4988713;28;20403;-66
2022/05/04 02:42:37;;;;;;;13.70;2.60;;;9.10;99.90;;;;;;4991493;28;20074;-66
2022/05/04 02:45:04;;;;;;;8.93;2.17;;;9.00;99.90;;;;;;4991468;28;20070;-66
2022/05/04 02:47:30;;;;;;;8.52;2.55;;;9.00;99.90;;;;;;5004052;28;20070;-66
2022/05/04 02:49:56;;;;;;;7.65;2.90;;;8.90;99.90;;;;;;5009693;28;20077;-66
2022/05/04 02:52:22;;;;;;;10.65;2.50;;;8.90;99.90;;;;;;4990424;28;20049;-66
2022/05/04 02:54:47;;;;;;;8.18;2.15;;;8.90;99.90;;;;;;4989291;28;20042;-66
2022/05/04 02:57:13;;;;;;;12.57;2.58;;;8.90;99.90;;;;;;4990761;28;20050;-66
2022/05/04 02:59:38;;;;;;;5.75;2.08;;;8.90;99.90;;;;;;5010749;28;20042;-66
2022/05/04 03:04:48;;;;;;;10.93;2.50;;;8.90;99.90;;;;;;5010192;28;20370;-66
2022/05/04 03:07:13;;;;;;;8.27;2.35;;;9.10;99.90;;;;;;5011814;28;20045;-67
2022/05/04 03:09:39;;;;;;;8.25;2.40;;;9.00;99.90;;;;;;5009879;28;20080;-67
2022/05/04 03:12:05;;;;;;;8.70;2.40;;;9.10;99.90;;;;;;5009292;28;20041;-66
2022/05/04 03:14:31;;;;;;;6.90;2.58;;;9.00;99.90;;;;;;4975964;28;20482;-66
2022/05/04 03:16:57;;;;;;;10.00;2.22;;;9.00;99.90;;;;;;4992487;28;20109;-66
2022/05/04 03:19:24;;;;;;;7.72;2.35;;;9.00;99.90;;;;;;4992319;28;20050;-66
2022/05/04 03:21:50;;;;;;;6.78;2.60;;;9.00;99.90;;;;;;5011834;28;20474;-66
2022/05/04 03:24:16;;;;;;;7.63;2.42;;;9.00;99.90;;;;;;5008711;28;20034;-66
2022/05/04 03:26:41;;;;;;;8.50;2.25;;;9.10;99.90;;;;;;4994311;28;20049;-66
2022/05/04 03:29:08;;;;;;;11.20;2.33;;;9.90;99.90;;;;;;5007613;28;20078;-67
2022/05/04 03:31:34;;;;;;;7.88;2.38;;;9.00;99.90;;;;;;4989982;28;20113;-66
2022/05/04 03:33:59;;;;;;;11.48;2.83;;;9.60;99.90;;;;;;4990593;28;20157;-66
2022/05/04 03:36:25;;;;;;;10.10;2.72;;;9.00;99.90;;;;;;5009931;28;20545;-66
2022/05/04 03:38:51;;;;;;;8.85;2.28;;;8.90;99.90;;;;;;5008344;28;20052;-67
2022/05/04 03:41:17;;;;;;;7.68;2.58;;;8.90;99.90;;;;;;4991877;28;20049;-67
2022/05/04 03:43:43;;;;;;;9.73;2.47;;;8.90;99.90;;;;;;4991599;28;20045;-67
2022/05/04 03:46:13;;;;;;;7.47;2.55;;;9.00;99.90;;;;;;5009429;28;20457;-66
2022/05/04 03:48:39;;;;;;;10.55;2.85;;;8.90;99.90;;;;;;5009454;28;20046;-66
2022/05/04 03:51:05;;;;;;;9.85;2.38;;;8.90;99.90;;;;;;5009990;28;20064;-66
2022/05/04 03:53:30;;;;;;;8.15;2.40;;;8.90;99.90;;;;;;4973713;28;20396;-67
2022/05/04 03:55:56;;;;;;;8.65;2.15;;;8.90;99.90;;;;;;5009977;28;20120;-66
2022/05/04 03:58:22;;;;;;;6.68;2.20;;;8.90;99.90;;;;;;5009695;28;20077;-66
2022/05/04 04:00:47;;;;;;;9.68;2.50;;;8.90;99.90;;;;;;5005214;28;20475;-66
2022/05/04 04:03:13;;;;;;;14.50;2.85;;;8.90;99.90;;;;;;4991524;28;20113;-66
2022/05/04 04:05:38;;;;;;;8.60;2.50;;;8.90;99.90;;;;;;4972499;28;20060;-67
2022/05/04 04:08:05;;;;;;;10.60;2.58;;;8.90;99.90;;;;;;4977315;28;20041;-66
2022/05/04 04:10:30;;;;;;;7.07;2.42;;;8.90;99.90;;;;;;5009159;28;20046;-66
2022/05/04 04:12:56;;;;;;;11.10;2.58;;;8.80;99.90;;;;;;5007460;28;20045;-66
2022/05/04 04:15:21;;;;;;;9.00;2.67;;;8.90;99.90;;;;;;4990788;28;20050;-66
2022/05/04 04:17:47;;;;;;;8.88;2.75;;;8.90;99.90;;;;;;5009002;28;20051;-66
2022/05/04 04:22:57;;;;;;;8.38;2.30;;;8.90;99.90;;;;;;5018470;28;20081;-66
2022/05/04 04:25:23;;;;;;;8.55;2.30;;;8.90;99.90;;;;;;5027797;28;20155;-66
2022/05/04 04:27:49;;;;;;;11.25;2.53;;;8.90;99.90;;;;;;5027917;28;20508;-66
2022/05/04 04:30:14;;;;;;;7.20;2.50;;;8.90;99.90;;;;;;5028353;28;20045;-66
2022/05/04 04:32:40;;;;;;;10.35;2.33;;;9.00;99.90;;;;;;5028821;28;20500;-66
2022/05/04 04:35:06;;;;;;;11.32;2.60;;;8.90;99.90;;;;;;5017850;28;20041;-66
2022/05/04 04:37:32;;;;;;;9.23;2.33;;;8.90;99.90;;;;;;5008594;28;20456;-66
2022/05/04 04:39:58;;;;;;;5.65;2.10;;;10.00;99.90;;;;;;4991614;28;20042;-66
2022/05/04 04:42:23;;;;;;;8.85;2.58;;;8.90;99.90;;;;;;5006718;28;20077;-66
2022/05/04 04:44:49;;;;;;;5.80;2.15;;;9.20;99.90;;;;;;5008944;28;20386;-66
2022/05/04 04:47:15;;;;;;;7.72;2.47;;;8.90;99.90;;;;;;5008403;28;20038;-68
2022/05/04 04:49:40;;;;;;;13.65;2.50;;;9.00;99.90;;;;;;4989884;28;20053;-67
2022/05/04 04:52:06;;;;;;;7.10;2.63;;;9.00;99.90;;;;;;4993118;28;20094;-66
2022/05/04 04:54:32;;;;;;;9.25;2.22;;;8.90;99.90;;;;;;4988504;28;20061;-66
2022/05/04 04:56:57;;;;;;;10.52;2.50;;;9.00;99.90;;;;;;4970328;28;20065;-66
2022/05/04 04:59:23;;;;;;;8.20;2.10;;;9.00;99.90;;;;;;4989297;28;20042;-66
2022/05/04 05:01:48;;;;;;;9.27;2.22;;;9.00;99.90;;;;;;4988610;28;20129;-66
2022/05/04 05:04:14;;;;;;;8.75;2.80;;;9.00;99.90;;;;;;4987816;28;20050;-66
2022/05/04 05:06:40;;;;;;;6.13;2.15;;;9.00;99.90;;;;;;4988383;28;20096;-66
2022/05/04 05:09:05;;;;;;;6.45;2.20;;;9.00;99.90;;;;;;4988153;28;20042;-66
2022/05/04 05:11:31;;;;;;;7.57;2.22;;;9.10;99.90;;;;;;4988530;28;20991;-66
2022/05/04 05:16:41;;;;;;;7.72;2.22;;;9.10;99.90;;;;;;5007551;28;20264;-66
2022/05/04 05:19:07;;;;;;;5.75;2.05;;;9.10;99.90;;;;;;5008537;28;20081;-66
2022/05/04 05:21:33;;;;;;;9.27;2.30;;;9.10;99.90;;;;;;5008443;28;20478;-67
2022/05/04 05:23:58;;;;;;;6.45;2.40;;;9.10;99.90;;;;;;5007079;28;20060;-67
2022/05/04 05:26:24;;;;;;;8.65;2.55;;;9.10;99.90;;;;;;4968437;28;20055;-67
2022/05/04 05:28:49;;;;;;;9.90;2.60;;;9.10;99.90;;;;;;4968622;28;20050;-67
2022/05/04 05:31:15;;;;;;;8.73;2.22;;;9.10;99.90;;;;;;4968711;28;20050;-67
2022/05/04 05:33:40;;;;;;;9.02;2.60;;;9.10;99.90;;;;;;4967103;28;20143;-67
2022/05/04 05:36:07;;;;;;;9.20;2.67;;;9.10;99.90;;;;;;4971805;28;20113;-67
2022/05/04 05:38:33;;;;;;;8.45;2.25;;;9.10;99.90;;;;;;4971954;28;20378;-67
2022/05/04 05:40:59;;;;;;;7.90;2.38;;;9.20;99.90;;;;;;4972443;28;20114;-66
2022/05/04 05:43:25;;;;;;;8.18;2.05;;;9.20;99.90;;;;;;4972811;28;20080;-67
2022/05/04 05:45:51;;;;;;;7.32;2.15;;;9.20;99.90;;;;;;4971706;28;20042;-67
2022/05/04 05:48:16;;;;;;;9.02;2.42;;;9.20;99.90;;;;;;4955119;28;20121;-67
2022/05/04 05:50:42;;;;;;;10.85;2.42;;;9.30;99.90;;;;;;4974872;28;20114;-67
2022/05/04 05:53:08;;;;;;;7.13;1.95;;;9.30;99.90;;;;;;4974050;28;20042;-67
2022/05/04 05:55:34;;;;;;;8.77;2.78;;;9.30;99.90;;;;;;4973829;28;20113;-67
2022/05/04 05:57:59;;;;;;;8.90;2.63;;;9.40;99.90;;;;;;4971467;28;20050;-67
2022/05/04 06:00:25;;;;;;;9.23;2.58;;;9.40;99.90;;;;;;4972171;28;20039;-67
2022/05/04 06:02:51;;;;;;;8.13;2.10;;;9.50;99.90;;;;;;4972042;28;20039;-67
2022/05/04 06:05:17;;;;;;;10.43;2.53;;;9.70;99.90;;;;;;4970716;28;20050;-67
2022/05/04 06:07:42;;;;;;;9.05;2.30;;;9.60;99.90;;;;;;4971812;28;20392;-67
2022/05/04 06:10:08;;;;;;;8.07;2.45;;;9.60;99.90;;;;;;4972335;28;20049;-67
2022/05/04 06:12:34;;;;;;;7.90;1.98;;;9.60;99.90;;;;;;4953476;28;20137;-67
2022/05/04 06:15:00;;;;;;;7.65;2.15;;;9.60;99.90;;;;;;4972226;28;20145;-67
2022/05/04 06:17:25;;;;;;;9.20;2.35;;;9.60;99.90;;;;;;4971576;28;20043;-67
2022/05/04 06:19:51;;;;;;;10.27;2.58;;;9.70;99.90;;;;;;4970663;28;20890;-67
2022/05/04 06:22:16;;;;;;;7.28;2.25;;;9.70;99.90;;;;;;4968635;28;20051;-66
2022/05/04 06:24:42;;;;;;;7.60;2.03;;;9.80;99.90;;;;;;4980099;28;20053;-66
2022/05/04 06:27:07;;;;;;;13.57;2.55;;;9.80;99.90;;;;;;5009559;28;20058;-66
2022/05/04 06:35:04;;;;;;;9.63;2.22;;;9.90;99.90;;;;;;5009883;28;20053;-66
2022/05/04 06:37:30;;;;;;;8.43;2.22;;;10.00;99.90;;;;;;4991908;28;20057;-64
2022/05/04 06:39:55;;;;;;;6.82;2.20;;;10.00;99.90;;;;;;5012072;28;20410;-66
2022/05/04 06:42:21;;;;;;;10.35;2.38;;;10.10;99.90;;;;;;5009984;28;20474;-65
2022/05/04 06:44:46;;;;;;;8.40;2.22;;;10.10;99.90;;;;;;5009967;28;20042;-66
2022/05/04 06:47:12;;;;;;;8.70;2.10;;;10.10;99.90;;;;;;5009363;28;20042;-66
2022/05/04 06:49:38;;;;;;;7.93;2.65;;;10.30;99.90;;;;;;5009586;28;20049;-66
2022/05/04 06:52:05;;;;;;;19.10;2.50;;;10.30;99.90;;;;;;5010040;28;20124;-66
2022/05/04 06:54:30;;;;;;;7.95;2.33;;;10.30;99.90;;;;;;5010175;28;20044;-65
2022/05/04 06:56:56;;;;;;;8.27;2.22;;;10.30;99.90;;;;;;5008233;28;20054;-65
2022/05/04 06:59:21;;;;;;;7.97;2.33;;;10.30;99.90;;;;;;5010069;28;20073;-65
2022/05/04 07:01:47;;;;;;;9.95;2.42;;;10.40;99.90;;;;;;4997588;28;20043;-66
2022/05/04 07:04:12;;;;;;;10.38;2.45;;;10.40;99.90;;;;;;4989755;28;20045;-65
2022/05/04 07:06:38;;;;;;;8.35;2.47;;;10.40;99.90;;;;;;4973510;28;20471;-65
2022/05/04 07:09:04;;;;;;;8.77;2.35;;;10.40;99.90;;;;;;4994366;28;20044;-65
2022/05/04 07:11:30;;;;;;;7.10;2.33;;;11.10;99.90;;;;;;5013934;28;20056;-67
2022/05/04 07:14:03;;;;;;;9.98;2.53;;;10.60;99.90;;;;;;5079172;23;20097;-93
2022/05/04 07:28:02;;;;;;;9.60;2.50;;;11.10;99.90;;;;;;4989074;28;20118;-92
2022/05/04 07:30:28;;;;;;;7.35;2.25;;;11.10;99.90;;;;;;4953882;28;20050;-66
2022/05/04 07:32:54;;;;;;;6.32;2.17;;;11.30;99.90;;;;;;4956554;28;20508;-65
2022/05/04 07:35:19;;;;;;;13.60;2.53;;;11.80;99.90;;;;;;4974228;28;20133;-65
2022/05/04 07:37:45;;;;;;;6.47;2.10;;;11.40;99.90;;;;;;4991511;28;20172;-65
2022/05/04 07:42:55;;;;;;;11.20;2.40;;;11.40;99.90;;;;;;4991771;28;20481;-66
2022/05/04 07:45:21;;;;;;;6.53;2.20;;;11.60;99.90;;;;;;4991937;28;20085;-66
2022/05/04 07:47:47;;;;;;;7.15;2.40;;;11.70;99.90;;;;;;4993004;28;20065;-66
2022/05/04 07:50:13;;;;;;;8.43;2.50;;;11.60;99.90;;;;;;4991543;28;20047;-66
2022/05/04 07:52:39;;;;;;;7.38;2.03;;;11.70;99.90;;;;;;4971797;28;20138;-66
2022/05/04 07:55:06;;;;;;;8.52;2.30;;;11.70;99.80;;;;;;4973334;28;20142;-65
2022/05/04 07:57:32;;;;;;;8.13;2.50;;;11.80;99.90;;;;;;4971859;28;20430;-66
2022/05/04 08:05:32;;;;;;;9.77;2.38;;;12.10;99.10;;;;;;4971749;28;20054;-67
2022/05/04 08:07:58;;;;;;;11.13;2.40;;;11.90;99.00;;;;;;4972359;28;20061;-66
2022/05/04 08:10:24;;;;;;;8.85;2.30;;;11.90;99.20;;;;;;4972744;28;20043;-65
2022/05/04 08:12:50;;;;;;;7.57;2.40;;;11.90;99.00;;;;;;4971600;28;20054;-66
2022/05/04 08:15:15;;;;;;;9.20;2.25;;;11.90;99.20;;;;;;4955881;28;20511;-66
2022/05/04 08:17:41;;;;;;;8.00;2.10;;;11.90;99.30;;;;;;4955581;28;20494;-65
2022/05/04 08:20:07;;;;;;;10.00;2.42;;;12.10;98.70;;;;;;4972317;28;20050;-66
2022/05/04 08:22:33;;;;;;;5.38;1.88;;;12.30;98.30;;;;;;4972096;28;20047;-66
2022/05/04 08:24:58;;;;;;;9.40;2.47;;;12.40;98.10;;;;;;4972825;28;20039;-66
2022/05/04 08:27:24;;;;;;;6.45;2.30;;;12.50;98.10;;;;;;4971179;28;20043;-66
2022/05/04 08:29:49;;;;;;;12.15;2.42;;;12.50;98.40;;;;;;4972439;28;20502;-66
2022/05/04 08:32:15;;;;;;;10.95;2.65;;;12.60;98.40;;;;;;4972546;28;20177;-66
2022/05/04 08:34:41;;;;;;;8.27;2.40;;;13.40;98.70;;;;;;4971216;28;20517;-66
2022/05/04 08:37:07;;;;;;;7.18;2.22;;;12.70;98.20;;;;;;4972958;28;20046;-66
2022/05/04 08:39:32;;;;;;;8.85;2.55;;;12.70;98.30;;;;;;4971768;28;20125;-66
2022/05/04 08:41:59;;;;;;;9.57;3.15;;;12.70;98.30;;;;;;4971408;28;20182;-66
2022/05/04 08:44:25;;;;;;;7.75;2.30;;;12.70;98.60;;;;;;4971578;28;20054;-66
2022/05/04 08:46:50;;;;;;;9.15;2.40;;;12.60;98.30;;;;;;4955402;28;20047;-66
2022/05/04 08:49:19;;;;;;;8.32;2.53;;;12.80;98.20;;;;;;4971101;28;20043;-66
2022/05/04 08:51:46;;;;;;;10.75;2.50;;;12.70;97.90;;;;;;4955240;28;20403;-66
2022/05/04 08:54:13;;;;;;;9.43;2.70;;;12.70;97.80;;;;;;4971374;28;20121;-66
2022/05/04 08:56:38;;;;;;;7.18;2.70;;;12.70;98.00;;;;;;4954564;28;20042;-66
2022/05/04 08:59:05;;;;;;;6.72;2.45;;;12.80;98.30;;;;;;4974865;28;20415;-65
2022/05/04 09:01:39;;;;;;;8.35;2.65;;;12.80;98.40;;;;;;5015323;23;20249;-90
2022/05/04 09:04:05;;;;;;;12.05;2.83;;;12.90;98.20;;;;;;4977687;28;20057;-87
2022/05/04 09:06:33;;;;;;;9.35;2.55;;;12.90;98.00;;;;;;4982163;28;20046;-88
2022/05/04 09:09:10;;;;;;;8.00;2.83;;;13.40;98.50;;;;;;4993166;28;20108;-89
2022/05/04 09:11:40;;;;;;;7.10;2.33;;;13.10;97.90;;;;;;5009309;28;20125;-90
2022/05/04 09:14:26;;;;;;;6.43;2.17;;;13.20;97.70;;;;;;5000922;28;20062;-87
2022/05/04 09:17:04;;;;;;;10.93;2.70;;;14.30;97.40;;;;;;4983882;28;20046;-89
2022/05/04 09:19:36;;;;;;;9.02;2.58;;;13.50;96.70;;;;;;5017559;28;20046;-90
2022/05/04 18:36:57;;;;;;;10.45;3.70;;;12.30;99.90;;;;;;5046755;23;20064;-67
2022/05/04 18:39:23;;;;;;;8.05;3.42;;;12.30;99.90;;;;;;5005444;28;20054;-67
2022/05/04 18:41:48;;;;;;;10.48;3.40;;;12.20;99.90;;;;;;5007732;28;20065;-66
2022/05/04 18:44:14;;;;;;;10.70;3.55;;;12.10;99.90;;;;;;5005461;28;20364;-67
2022/05/04 18:46:39;;;;;;;10.10;4.00;;;12.10;99.90;;;;;;5006647;28;20045;-67
2022/05/04 18:49:06;;;;;;;11.00;3.97;;;12.00;99.90;;;;;;5007301;28;20033;-67
2022/05/04 18:51:32;;;;;;;10.60;3.80;;;11.90;99.90;;;;;;5006829;28;20050;-67
2022/05/04 18:53:58;;;;;;;10.07;3.33;;;11.90;99.90;;;;;;5007571;28;20052;-67
2022/05/04 18:56:24;;;;;;;10.48;3.50;;;11.80;99.90;;;;;;5007561;28;20147;-67
2022/05/04 18:58:52;;;;;;;11.27;4.20;;;12.10;99.90;;;;;;5006978;28;20417;-67
2022/05/04 19:01:18;;;;;;;13.35;3.97;;;11.70;99.90;;;;;;4998717;28;20108;-67
2022/05/04 19:03:44;;;;;;;9.30;3.50;;;11.70;99.90;;;;;;4989755;28;20050;-67
2022/05/04 19:06:10;;;;;;;9.88;3.85;;;11.60;99.90;;;;;;4969218;28;20465;-67
2022/05/04 19:08:35;;;;;;;10.57;3.92;;;11.50;99.90;;;;;;4987403;28;20403;-67
2022/05/04 19:11:09;;;;;;;10.13;4.20;;;11.50;99.90;;;;;;5001426;28;20057;-67
2022/05/04 19:13:35;;;;;;;13.35;4.82;;;11.50;99.90;;;;;;5006045;28;20054;-68
2022/05/04 19:16:01;;;;;;;10.43;3.60;;;11.40;99.90;;;;;;5006206;28;20133;-67
2022/05/04 19:18:26;;;;;;;8.70;3.90;;;11.70;99.90;;;;;;5010795;28;20478;-67
2022/05/04 19:20:52;;;;;;;11.25;3.75;;;11.30;99.90;;;;;;5021943;28;20156;-68
2022/05/04 19:23:18;;;;;;;7.82;3.60;;;11.20;99.90;;;;;;5025751;28;20057;-67
2022/05/04 19:25:43;;;;;;;10.90;3.75;;;11.10;99.90;;;;;;5026761;28;20480;-67
2022/05/04 19:28:09;;;;;;;9.27;3.80;;;11.10;99.90;;;;;;5024143;28;20056;-66
2022/05/04 19:30:34;;;;;;;8.25;3.80;;;11.10;99.90;;;;;;5026652;28;20055;-66
2022/05/04 19:33:00;;;;;;;9.68;4.13;;;11.00;99.90;;;;;;5018737;28;20088;-66
2022/05/04 19:35:25;;;;;;;9.07;4.03;;;11.00;99.90;;;;;;5005886;28;20129;-68
2022/05/04 19:37:51;;;;;;;12.18;4.32;;;11.00;99.90;;;;;;5008141;28;20407;-68
2022/05/04 19:40:17;;;;;;;10.20;4.28;;;10.90;99.90;;;;;;5005925;28;20072;-68
2022/05/04 19:42:42;;;;;;;10.98;4.30;;;10.90;99.90;;;;;;4988963;28;20052;-69
2022/05/04 19:45:08;;;;;;;10.05;4.40;;;11.90;99.90;;;;;;5006701;28;20339;-68
2022/05/04 19:47:34;;;;;;;6.47;4.13;;;10.80;99.90;;;;;;5006275;28;20128;-68
2022/05/04 19:50:00;;;;;;;11.88;4.35;;;10.80;99.90;;;;;;4995338;28;20474;-68
2022/05/04 19:52:26;;;;;;;12.25;4.00;;;10.70;99.90;;;;;;4985929;28;20046;-68
2022/05/04 19:54:52;;;;;;;9.85;3.90;;;11.30;99.90;;;;;;4986879;28;20038;-67
2022/05/04 19:57:18;;;;;;;8.57;3.63;;;10.70;99.90;;;;;;4985052;28;20053;-67
2022/05/04 19:59:43;;;;;;;8.48;3.80;;;10.60;99.90;;;;;;4986882;28;20501;-66
2022/05/04 20:02:09;;;;;;;7.00;3.55;;;10.60;99.90;;;;;;4986253;28;20053;-66
2022/05/04 20:04:35;;;;;;;8.93;3.60;;;10.60;99.90;;;;;;5003609;28;20060;-66
2022/05/04 20:07:01;;;;;;;8.95;3.53;;;10.60;99.90;;;;;;5006569;28;20125;-67
2022/05/04 20:09:28;;;;;;;9.93;4.10;;;10.60;99.90;;;;;;4986513;28;20061;-67
2022/05/04 20:11:54;;;;;;;10.32;3.83;;;10.90;99.90;;;;;;4988342;28;20037;-67
2022/05/04 20:14:20;;;;;;;11.00;5.13;;;10.60;99.90;;;;;;5004659;28;20108;-67
2022/05/04 20:16:45;;;;;;;12.52;4.00;;;10.50;99.90;;;;;;5004147;28;20050;-67
2022/05/04 20:19:13;;;;;;;10.77;3.83;;;10.50;99.90;;;;;;5005413;28;20117;-67
2022/05/04 20:21:39;;;;;;;10.10;4.07;;;10.50;99.90;;;;;;5005916;28;20136;-67
2022/05/04 20:24:08;;;;;;;11.18;4.28;;;10.40;99.90;;;;;;4988132;28;20621;-67
2022/05/04 20:26:34;;;;;;;11.63;4.05;;;10.40;99.90;;;;;;4952261;28;20042;-67
2022/05/04 20:29:00;;;;;;;12.18;4.10;;;10.30;99.90;;;;;;4986260;28;20081;-67
2022/05/04 20:31:26;;;;;;;10.55;4.40;;;10.30;99.90;;;;;;4967981;28;20545;-67
2022/05/04 20:33:51;;;;;;;10.93;4.40;;;10.30;99.90;;;;;;5004972;28;20046;-67
2022/05/04 20:36:18;;;;;;;9.70;3.88;;;10.30;99.90;;;;;;5005037;28;20049;-67
2022/05/04 20:39:00;;;;;;;14.65;4.55;;;10.30;99.90;;;;;;5004138;28;20053;-67
2022/05/04 20:41:35;;;;;;;12.63;3.97;;;10.30;99.90;;;;;;5004948;28;20072;-67
2022/05/04 20:44:04;;;;;;;9.50;4.20;;;10.20;99.90;;;;;;4989095;28;20038;-68
2022/05/04 20:46:31;;;;;;;9.43;4.10;;;10.10;99.90;;;;;;4974919;28;20133;-67
2022/05/04 20:49:00;;;;;;;11.13;3.95;;;10.10;99.90;;;;;;4988275;28;20054;-67
2022/05/04 20:54:11;;;;;;;7.28;3.80;;;10.60;99.90;;;;;;5004831;28;20410;-67
2022/05/04 20:56:37;;;;;;;9.63;3.88;;;10.00;99.90;;;;;;5006358;28;20052;-67
2022/05/04 20:59:06;;;;;;;10.73;4.22;;;9.90;99.90;;;;;;5002753;28;20169;-67
2022/05/04 21:01:32;;;;;;;8.15;3.90;;;10.00;99.90;;;;;;4966477;28;20054;-67
2022/05/04 21:03:58;;;;;;;8.90;3.80;;;9.90;99.90;;;;;;5002284;28;20052;-67
2022/05/04 21:06:23;;;;;;;11.55;4.07;;;9.90;99.90;;;;;;5013669;28;20052;-67
2022/05/04 21:08:52;;;;;;;10.00;3.88;;;9.90;99.90;;;;;;5014971;28;20038;-67
2022/05/04 21:11:21;;;;;;;10.50;4.00;;;9.90;99.90;;;;;;5023490;28;20053;-67
2022/05/04 21:13:46;;;;;;;9.98;4.20;;;9.90;99.90;;;;;;4989663;28;20046;-67
2022/05/04 21:16:13;;;;;;;7.63;4.05;;;9.90;99.90;;;;;;5007429;28;20044;-67
2022/05/04 21:18:38;;;;;;;10.20;4.10;;;9.90;99.90;;;;;;5014731;28;20041;-67
2022/05/04 21:21:04;;;;;;;7.63;4.00;;;10.90;99.90;;;;;;5021274;28;20049;-67
2022/05/04 21:23:31;;;;;;;10.48;4.15;;;9.80;99.90;;;;;;5016940;28;20045;-67
2022/05/04 21:25:57;;;;;;;9.38;4.30;;;9.80;99.90;;;;;;5022337;28;20041;-67
2022/05/04 21:28:23;;;;;;;9.98;4.10;;;9.80;99.90;;;;;;4997319;28;20499;-67
2022/05/04 21:30:48;;;;;;;8.05;4.07;;;9.80;99.90;;;;;;5011210;28;20061;-67
2022/05/04 21:33:14;;;;;;;9.02;4.40;;;9.70;99.90;;;;;;5020968;28;20116;-67
2022/05/04 21:35:40;;;;;;;10.32;4.35;;;9.70;99.90;;;;;;5007754;28;20050;-67
2022/05/04 21:38:06;;;;;;;8.25;4.30;;;9.70;99.90;;;;;;4989964;28;20084;-67
2022/05/04 21:40:32;;;;;;;10.75;4.50;;;9.60;99.90;;;;;;5008279;28;20061;-67
2022/05/04 21:42:59;;;;;;;10.50;4.40;;;9.60;99.90;;;;;;5007601;28;20390;-67
2022/05/04 21:45:25;;;;;;;9.25;4.70;;;9.60;99.90;;;;;;5007243;28;20045;-67
2022/05/04 21:47:51;;;;;;;11.73;5.28;;;9.60;99.90;;;;;;5008683;28;20025;-67
2022/05/04 21:50:17;;;;;;;11.05;4.80;;;9.60;99.90;;;;;;5008840;28;20053;-66
2022/05/04 21:52:42;;;;;;;10.25;4.78;;;9.60;99.90;;;;;;4989830;28;20443;-67
2022/05/04 21:55:08;;;;;;;11.93;4.93;;;9.60;99.90;;;;;;4989426;28;20130;-67
2022/05/04 21:57:34;;;;;;;9.15;4.70;;;9.60;99.90;;;;;;4989080;28;20133;-68
2022/05/04 22:00:00;;;;;;;10.38;4.60;;;9.60;99.90;;;;;;5010711;28;20116;-67
2022/05/04 22:02:26;;;;;;;11.82;5.32;;;9.60;99.90;;;;;;4992514;28;20046;-67
2022/05/04 22:04:52;;;;;;;9.13;4.45;;;9.50;99.90;;;;;;5005666;28;20512;-67
2022/05/04 22:07:18;;;;;;;12.43;4.47;;;9.50;99.90;;;;;;5008183;28;20034;-68
2022/05/04 22:09:44;;;;;;;9.02;4.50;;;9.50;99.90;;;;;;4975510;28;20038;-67
2022/05/04 22:14:54;;;;;;;10.50;4.80;;;9.40;99.90;;;;;;5008633;28;20046;-68
2022/05/04 22:17:22;;;;;;;8.15;4.10;;;9.40;99.90;;;;;;4992792;28;20535;-67
2022/05/04 22:19:50;;;;;;;12.88;4.90;;;9.40;99.90;;;;;;5012280;28;20144;-67
2022/05/04 22:22:16;;;;;;;10.75;5.22;;;9.40;99.90;;;;;;5011438;28;20042;-67
2022/05/04 22:24:42;;;;;;;10.38;4.55;;;9.40;99.90;;;;;;5010325;28;20120;-67
2022/05/04 22:27:07;;;;;;;10.85;4.95;;;9.30;99.90;;;;;;5010958;28;20121;-67
2022/05/04 22:29:33;;;;;;;12.45;5.00;;;9.40;99.90;;;;;;5010462;28;20042;-67
2022/05/04 22:31:59;;;;;;;8.23;4.28;;;9.30;99.90;;;;;;5010957;28;20057;-66
2022/05/04 22:34:24;;;;;;;9.95;4.60;;;9.30;99.90;;;;;;5009530;28;20050;-66
2022/05/04 22:36:50;;;;;;;9.10;4.90;;;9.20;99.90;;;;;;5011457;28;20044;-66
2022/05/04 22:39:16;;;;;;;11.43;4.82;;;9.20;99.90;;;;;;5009888;28;20628;-67
2022/05/04 22:41:41;;;;;;;12.75;4.50;;;9.20;99.90;;;;;;5010764;28;20569;-67